sensor_id;sensor_type;location;lat;lon;timestamp;P1;durP1;ratioP1;P2;durP2;ratioP2
71435;SDS011;59251;51.326;12.370;2023-04-03T00:00:05;5.57;;;0.80;;
71435;SDS011;59251;51.326;12.370;2023-04-03T00:02:31;7.33;;;0.70;;
71435;SDS011;59251;51.326;12.370;2023-04-03T00:04:57;6.25;;;0.68;;
71435;SDS011;59251;51.326;12.370;2023-04-03T00:07:22;5.73;;;0.70;;
71435;SDS011;59251;51.326;12.370;2023-04-03T00:09:47;8.23;;;0.80;;
71435;SDS011;59251;51.326;12.370;2023-04-03T00:12:13;9.73;;;1.10;;
71435;SDS011;59251;51.326;12.370;2023-04-03T00:14:38;7.33;;;0.90;;
71435;SDS011;59251;51.326;12.370;2023-04-03T00:17:04;9.50;;;1.08;;
71435;SDS011;59251;51.326;12.370;2023-04-03T00:19:29;7.40;;;0.85;;
71435;SDS011;59251;51.326;12.370;2023-04-03T00:21:55;4.97;;;0.80;;
71435;SDS011;59251;51.326;12.370;2023-04-03T00:24:20;8.03;;;1.03;;
71435;SDS011;59251;51.326;12.370;2023-04-03T00:26:46;5.00;;;1.00;;
71435;SDS011;59251;51.326;12.370;2023-04-03T00:29:11;6.13;;;0.60;;
71435;SDS011;59251;51.326;12.370;2023-04-03T00:31:36;6.03;;;0.90;;
71435;SDS011;59251;51.326;12.370;2023-04-03T00:34:02;7.15;;;0.73;;
71435;SDS011;59251;51.326;12.370;2023-04-03T00:36:27;9.02;;;1.00;;
71435;SDS011;59251;51.326;12.370;2023-04-03T00:38:52;5.80;;;0.90;;
71435;SDS011;59251;51.326;12.370;2023-04-03T00:41:18;6.43;;;0.97;;
71435;SDS011;59251;51.326;12.370;2023-04-03T00:43:43;7.00;;;0.67;;
71435;SDS011;59251;51.326;12.370;2023-04-03T00:46:09;4.97;;;0.82;;
71435;SDS011;59251;51.326;12.370;2023-04-03T00:48:39;6.95;;;1.10;;
71435;SDS011;59251;51.326;12.370;2023-04-03T00:51:09;5.80;;;0.60;;
71435;SDS011;59251;51.326;12.370;2023-04-03T00:56:33;7.50;;;1.05;;
71435;SDS011;59251;51.326;12.370;2023-04-03T00:59:04;5.82;;;0.70;;
71435;SDS011;59251;51.326;12.370;2023-04-03T01:01:33;6.70;;;1.20;;
71435;SDS011;59251;51.326;12.370;2023-04-03T01:03:59;7.37;;;0.90;;
71435;SDS011;59251;51.326;12.370;2023-04-03T01:06:28;8.73;;;0.90;;
71435;SDS011;59251;51.326;12.370;2023-04-03T01:08:59;5.13;;;0.65;;
71435;SDS011;59251;51.326;12.370;2023-04-03T01:11:25;9.02;;;1.05;;
71435;SDS011;59251;51.326;12.370;2023-04-03T01:13:51;6.10;;;0.90;;
71435;SDS011;59251;51.326;12.370;2023-04-03T01:16:16;7.95;;;0.80;;
71435;SDS011;59251;51.326;12.370;2023-04-03T01:18:43;6.43;;;0.80;;
71435;SDS011;59251;51.326;12.370;2023-04-03T01:21:18;5.55;;;0.77;;
71435;SDS011;59251;51.326;12.370;2023-04-03T01:23:54;7.22;;;1.02;;
71435;SDS011;59251;51.326;12.370;2023-04-03T01:26:27;6.38;;;0.80;;
71435;SDS011;59251;51.326;12.370;2023-04-03T01:28:53;7.45;;;1.00;;
71435;SDS011;59251;51.326;12.370;2023-04-03T01:31:21;9.27;;;1.20;;
71435;SDS011;59251;51.326;12.370;2023-04-03T01:33:52;6.50;;;0.82;;
71435;SDS011;59251;51.326;12.370;2023-04-03T01:36:19;7.07;;;0.70;;
71435;SDS011;59251;51.326;12.370;2023-04-03T01:38:49;10.23;;;1.02;;
71435;SDS011;59251;51.326;12.370;2023-04-03T01:41:15;6.65;;;0.70;;
71435;SDS011;59251;51.326;12.370;2023-04-03T01:43:41;6.03;;;0.70;;
71435;SDS011;59251;51.326;12.370;2023-04-03T01:46:07;7.67;;;1.03;;
71435;SDS011;59251;51.326;12.370;2023-04-03T01:48:32;8.30;;;1.00;;
71435;SDS011;59251;51.326;12.370;2023-04-03T01:50:58;7.13;;;1.07;;
71435;SDS011;59251;51.326;12.370;2023-04-03T01:53:23;6.73;;;0.90;;
71435;SDS011;59251;51.326;12.370;2023-04-03T01:55:49;7.43;;;0.80;;
71435;SDS011;59251;51.326;12.370;2023-04-03T01:58:14;7.00;;;0.80;;
71435;SDS011;59251;51.326;12.370;2023-04-03T02:00:40;8.70;;;0.97;;
71435;SDS011;59251;51.326;12.370;2023-04-03T02:03:05;5.17;;;0.57;;
71435;SDS011;59251;51.326;12.370;2023-04-03T02:05:32;8.07;;;0.82;;
71435;SDS011;59251;51.326;12.370;2023-04-03T02:07:57;6.72;;;0.80;;
71435;SDS011;59251;51.326;12.370;2023-04-03T02:10:22;8.27;;;0.90;;
71435;SDS011;59251;51.326;12.370;2023-04-03T02:12:48;3.93;;;0.90;;
71435;SDS011;59251;51.326;12.370;2023-04-03T02:15:13;4.20;;;0.57;;
71435;SDS011;59251;51.326;12.370;2023-04-03T02:17:39;7.38;;;1.17;;
71435;SDS011;59251;51.326;12.370;2023-04-03T02:20:04;6.17;;;0.97;;
71435;SDS011;59251;51.326;12.370;2023-04-03T02:22:30;5.55;;;0.93;;
71435;SDS011;59251;51.326;12.370;2023-04-03T02:24:56;9.53;;;0.93;;
71435;SDS011;59251;51.326;12.370;2023-04-03T02:27:21;7.77;;;0.93;;
71435;SDS011;59251;51.326;12.370;2023-04-03T02:29:47;6.93;;;0.93;;
71435;SDS011;59251;51.326;12.370;2023-04-03T02:32:12;6.93;;;0.80;;
71435;SDS011;59251;51.326;12.370;2023-04-03T02:34:37;6.37;;;0.80;;
71435;SDS011;59251;51.326;12.370;2023-04-03T02:37:02;6.32;;;0.63;;
71435;SDS011;59251;51.326;12.370;2023-04-03T02:39:28;7.90;;;0.98;;
71435;SDS011;59251;51.326;12.370;2023-04-03T02:41:53;5.93;;;0.70;;
71435;SDS011;59251;51.326;12.370;2023-04-03T02:44:18;8.90;;;0.90;;
71435;SDS011;59251;51.326;12.370;2023-04-03T02:46:44;6.30;;;0.80;;
71435;SDS011;59251;51.326;12.370;2023-04-03T02:49:09;6.93;;;0.70;;
71435;SDS011;59251;51.326;12.370;2023-04-03T02:51:35;8.60;;;1.10;;
71435;SDS011;59251;51.326;12.370;2023-04-03T02:54:00;8.20;;;1.23;;
71435;SDS011;59251;51.326;12.370;2023-04-03T02:56:25;5.32;;;0.90;;
71435;SDS011;59251;51.326;12.370;2023-04-03T02:58:51;8.60;;;1.30;;
71435;SDS011;59251;51.326;12.370;2023-04-03T03:01:17;7.10;;;0.80;;
71435;SDS011;59251;51.326;12.370;2023-04-03T03:03:42;9.87;;;0.87;;
71435;SDS011;59251;51.326;12.370;2023-04-03T03:06:09;8.77;;;0.80;;
71435;SDS011;59251;51.326;12.370;2023-04-03T03:08:38;7.43;;;0.82;;
71435;SDS011;59251;51.326;12.370;2023-04-03T03:11:05;8.38;;;0.85;;
71435;SDS011;59251;51.326;12.370;2023-04-03T03:13:31;7.23;;;0.80;;
71435;SDS011;59251;51.326;12.370;2023-04-03T03:15:56;6.65;;;0.82;;
71435;SDS011;59251;51.326;12.370;2023-04-03T03:18:22;5.90;;;0.75;;
71435;SDS011;59251;51.326;12.370;2023-04-03T03:20:54;9.27;;;1.23;;
71435;SDS011;59251;51.326;12.370;2023-04-03T03:23:21;7.38;;;1.00;;
71435;SDS011;59251;51.326;12.370;2023-04-03T03:25:47;7.40;;;1.10;;
71435;SDS011;59251;51.326;12.370;2023-04-03T03:28:13;5.90;;;1.00;;
71435;SDS011;59251;51.326;12.370;2023-04-03T03:30:38;8.27;;;1.00;;
71435;SDS011;59251;51.326;12.370;2023-04-03T03:33:04;9.00;;;0.97;;
71435;SDS011;59251;51.326;12.370;2023-04-03T03:35:29;7.80;;;0.93;;
71435;SDS011;59251;51.326;12.370;2023-04-03T03:37:55;5.25;;;0.60;;
71435;SDS011;59251;51.326;12.370;2023-04-03T03:40:20;7.37;;;0.73;;
71435;SDS011;59251;51.326;12.370;2023-04-03T03:42:46;8.60;;;1.00;;
71435;SDS011;59251;51.326;12.370;2023-04-03T03:45:11;8.60;;;0.93;;
71435;SDS011;59251;51.326;12.370;2023-04-03T03:47:36;9.60;;;1.00;;
71435;SDS011;59251;51.326;12.370;2023-04-03T03:50:02;8.27;;;1.20;;
71435;SDS011;59251;51.326;12.370;2023-04-03T03:52:28;7.25;;;1.10;;
71435;SDS011;59251;51.326;12.370;2023-04-03T03:54:55;7.55;;;0.75;;
71435;SDS011;59251;51.326;12.370;2023-04-03T03:57:20;9.85;;;1.25;;
71435;SDS011;59251;51.326;12.370;2023-04-03T03:59:46;5.50;;;1.07;;
71435;SDS011;59251;51.326;12.370;2023-04-03T04:02:12;8.57;;;1.13;;
71435;SDS011;59251;51.326;12.370;2023-04-03T04:04:37;8.03;;;1.00;;
71435;SDS011;59251;51.326;12.370;2023-04-03T04:07:03;8.30;;;0.87;;
71435;SDS011;59251;51.326;12.370;2023-04-03T04:09:28;6.77;;;1.37;;
71435;SDS011;59251;51.326;12.370;2023-04-03T04:11:54;9.40;;;1.08;;
71435;SDS011;59251;51.326;12.370;2023-04-03T04:14:19;8.07;;;0.87;;
71435;SDS011;59251;51.326;12.370;2023-04-03T04:16:47;5.80;;;0.90;;
71435;SDS011;59251;51.326;12.370;2023-04-03T04:19:13;6.13;;;1.30;;
71435;SDS011;59251;51.326;12.370;2023-04-03T04:21:39;10.90;;;1.27;;
71435;SDS011;59251;51.326;12.370;2023-04-03T04:24:05;7.85;;;1.27;;
71435;SDS011;59251;51.326;12.370;2023-04-03T04:26:31;6.17;;;1.10;;
71435;SDS011;59251;51.326;12.370;2023-04-03T04:28:56;9.50;;;1.05;;
71435;SDS011;59251;51.326;12.370;2023-04-03T04:31:21;8.90;;;1.20;;
71435;SDS011;59251;51.326;12.370;2023-04-03T04:33:47;7.43;;;1.43;;
71435;SDS011;59251;51.326;12.370;2023-04-03T04:36:12;7.80;;;1.37;;
71435;SDS011;59251;51.326;12.370;2023-04-03T04:38:39;8.07;;;1.17;;
71435;SDS011;59251;51.326;12.370;2023-04-03T04:41:05;16.73;;;4.57;;
71435;SDS011;59251;51.326;12.370;2023-04-03T04:43:30;19.38;;;5.50;;
71435;SDS011;59251;51.326;12.370;2023-04-03T04:46:02;26.67;;;10.00;;
71435;SDS011;59251;51.326;12.370;2023-04-03T04:48:29;29.40;;;12.27;;
71435;SDS011;59251;51.326;12.370;2023-04-03T04:50:55;37.20;;;14.77;;
71435;SDS011;59251;51.326;12.370;2023-04-03T04:53:20;45.20;;;17.30;;
71435;SDS011;59251;51.326;12.370;2023-04-03T04:55:45;43.53;;;15.53;;
71435;SDS011;59251;51.326;12.370;2023-04-03T04:58:11;49.87;;;19.57;;
71435;SDS011;59251;51.326;12.370;2023-04-03T05:00:36;43.57;;;17.73;;
71435;SDS011;59251;51.326;12.370;2023-04-03T05:03:01;42.50;;;17.07;;
71435;SDS011;59251;51.326;12.370;2023-04-03T05:05:27;61.28;;;21.20;;
71435;SDS011;59251;51.326;12.370;2023-04-03T05:07:53;44.80;;;14.20;;
71435;SDS011;59251;51.326;12.370;2023-04-03T05:10:18;39.20;;;14.67;;
71435;SDS011;59251;51.326;12.370;2023-04-03T05:12:43;38.58;;;13.98;;
71435;SDS011;59251;51.326;12.370;2023-04-03T05:15:09;25.30;;;9.35;;
71435;SDS011;59251;51.326;12.370;2023-04-03T05:17:35;32.20;;;11.07;;
71435;SDS011;59251;51.326;12.370;2023-04-03T05:20:01;32.97;;;10.97;;
71435;SDS011;59251;51.326;12.370;2023-04-03T05:22:27;28.00;;;9.63;;
71435;SDS011;59251;51.326;12.370;2023-04-03T05:24:52;27.77;;;10.97;;
71435;SDS011;59251;51.326;12.370;2023-04-03T05:27:17;25.90;;;10.77;;
71435;SDS011;59251;51.326;12.370;2023-04-03T05:29:43;30.00;;;11.70;;
71435;SDS011;59251;51.326;12.370;2023-04-03T05:32:09;23.27;;;7.68;;
71435;SDS011;59251;51.326;12.370;2023-04-03T05:34:35;24.42;;;10.82;;
71435;SDS011;59251;51.326;12.370;2023-04-03T05:37:00;26.57;;;11.47;;
71435;SDS011;59251;51.326;12.370;2023-04-03T05:39:28;26.87;;;10.17;;
71435;SDS011;59251;51.326;12.370;2023-04-03T05:41:53;17.33;;;6.68;;
71435;SDS011;59251;51.326;12.370;2023-04-03T05:44:18;14.80;;;7.33;;
71435;SDS011;59251;51.326;12.370;2023-04-03T05:46:44;20.73;;;6.77;;
71435;SDS011;59251;51.326;12.370;2023-04-03T05:49:09;21.73;;;8.90;;
71435;SDS011;59251;51.326;12.370;2023-04-03T05:51:39;18.75;;;7.53;;
71435;SDS011;59251;51.326;12.370;2023-04-03T05:54:17;12.97;;;5.73;;
71435;SDS011;59251;51.326;12.370;2023-04-03T05:56:44;15.35;;;5.72;;
71435;SDS011;59251;51.326;12.370;2023-04-03T05:59:10;16.05;;;5.63;;
71435;SDS011;59251;51.326;12.370;2023-04-03T06:01:36;14.10;;;4.80;;
71435;SDS011;59251;51.326;12.370;2023-04-03T06:04:02;14.55;;;5.72;;
71435;SDS011;59251;51.326;12.370;2023-04-03T06:06:42;14.77;;;4.57;;
71435;SDS011;59251;51.326;12.370;2023-04-03T06:09:17;11.45;;;3.88;;
71435;SDS011;59251;51.326;12.370;2023-04-03T06:11:44;13.40;;;4.67;;
71435;SDS011;59251;51.326;12.370;2023-04-03T06:14:10;17.73;;;4.20;;
71435;SDS011;59251;51.326;12.370;2023-04-03T06:16:35;13.87;;;4.70;;
71435;SDS011;59251;51.326;12.370;2023-04-03T06:19:02;12.52;;;3.70;;
71435;SDS011;59251;51.326;12.370;2023-04-03T06:21:27;14.50;;;4.67;;
71435;SDS011;59251;51.326;12.370;2023-04-03T06:23:53;12.38;;;4.18;;
71435;SDS011;59251;51.326;12.370;2023-04-03T06:26:18;11.30;;;4.37;;
71435;SDS011;59251;51.326;12.370;2023-04-03T06:28:43;8.57;;;2.60;;
71435;SDS011;59251;51.326;12.370;2023-04-03T06:31:09;17.40;;;5.73;;
71435;SDS011;59251;51.326;12.370;2023-04-03T06:33:34;11.47;;;3.03;;
71435;SDS011;59251;51.326;12.370;2023-04-03T06:36:03;17.35;;;3.55;;
71435;SDS011;59251;51.326;12.370;2023-04-03T06:38:29;12.82;;;2.70;;
71435;SDS011;59251;51.326;12.370;2023-04-03T06:40:55;16.37;;;2.93;;
71435;SDS011;59251;51.326;12.370;2023-04-03T06:43:20;10.30;;;2.47;;
71435;SDS011;59251;51.326;12.370;2023-04-03T06:45:46;9.35;;;2.30;;
71435;SDS011;59251;51.326;12.370;2023-04-03T06:48:12;9.23;;;1.87;;
71435;SDS011;59251;51.326;12.370;2023-04-03T06:50:38;7.13;;;0.80;;
71435;SDS011;59251;51.326;12.370;2023-04-03T06:53:03;8.60;;;1.27;;
71435;SDS011;59251;51.326;12.370;2023-04-03T06:55:29;5.80;;;1.23;;
71435;SDS011;59251;51.326;12.370;2023-04-03T06:57:54;7.93;;;1.20;;
71435;SDS011;59251;51.326;12.370;2023-04-03T07:00:20;6.20;;;0.85;;
71435;SDS011;59251;51.326;12.370;2023-04-03T07:02:46;8.83;;;1.00;;
71435;SDS011;59251;51.326;12.370;2023-04-03T07:05:11;6.10;;;0.47;;
71435;SDS011;59251;51.326;12.370;2023-04-03T07:07:37;6.40;;;1.40;;
71435;SDS011;59251;51.326;12.370;2023-04-03T07:10:03;5.70;;;0.75;;
71435;SDS011;59251;51.326;12.370;2023-04-03T07:12:29;4.32;;;0.45;;
71435;SDS011;59251;51.326;12.370;2023-04-03T07:14:55;4.27;;;0.53;;
71435;SDS011;59251;51.326;12.370;2023-04-03T07:17:20;8.60;;;0.80;;
71435;SDS011;59251;51.326;12.370;2023-04-03T07:19:46;7.97;;;0.83;;
71435;SDS011;59251;51.326;12.370;2023-04-03T07:22:11;7.45;;;0.95;;
71435;SDS011;59251;51.326;12.370;2023-04-03T07:24:37;6.65;;;0.70;;
71435;SDS011;59251;51.326;12.370;2023-04-03T07:27:02;4.17;;;0.60;;
71435;SDS011;59251;51.326;12.370;2023-04-03T07:29:28;5.75;;;1.10;;
71435;SDS011;59251;51.326;12.370;2023-04-03T07:31:53;4.43;;;0.43;;
71435;SDS011;59251;51.326;12.370;2023-04-03T07:34:20;5.82;;;0.60;;
71435;SDS011;59251;51.326;12.370;2023-04-03T07:36:45;4.30;;;0.50;;
71435;SDS011;59251;51.326;12.370;2023-04-03T07:39:11;5.57;;;0.77;;
71435;SDS011;59251;51.326;12.370;2023-04-03T07:41:36;6.77;;;0.60;;
71435;SDS011;59251;51.326;12.370;2023-04-03T07:44:03;4.78;;;0.65;;
71435;SDS011;59251;51.326;12.370;2023-04-03T07:46:30;3.78;;;0.40;;
71435;SDS011;59251;51.326;12.370;2023-04-03T07:48:56;7.00;;;0.60;;
71435;SDS011;59251;51.326;12.370;2023-04-03T07:51:21;8.53;;;1.10;;
71435;SDS011;59251;51.326;12.370;2023-04-03T07:53:46;7.70;;;1.02;;
71435;SDS011;59251;51.326;12.370;2023-04-03T07:56:12;6.13;;;0.80;;
71435;SDS011;59251;51.326;12.370;2023-04-03T07:58:37;7.30;;;1.07;;
71435;SDS011;59251;51.326;12.370;2023-04-03T08:01:03;6.40;;;1.00;;
71435;SDS011;59251;51.326;12.370;2023-04-03T08:03:29;9.07;;;1.70;;
71435;SDS011;59251;51.326;12.370;2023-04-03T08:05:54;6.07;;;1.00;;
71435;SDS011;59251;51.326;12.370;2023-04-03T08:08:22;6.10;;;1.60;;
71435;SDS011;59251;51.326;12.370;2023-04-03T08:10:51;6.10;;;0.93;;
71435;SDS011;59251;51.326;12.370;2023-04-03T08:13:18;8.60;;;0.98;;
71435;SDS011;59251;51.326;12.370;2023-04-03T08:15:44;4.57;;;0.70;;
71435;SDS011;59251;51.326;12.370;2023-04-03T08:18:09;6.78;;;0.98;;
71435;SDS011;59251;51.326;12.370;2023-04-03T08:20:35;5.43;;;0.73;;
71435;SDS011;59251;51.326;12.370;2023-04-03T08:23:01;4.27;;;0.73;;
71435;SDS011;59251;51.326;12.370;2023-04-03T08:25:26;4.38;;;0.77;;
71435;SDS011;59251;51.326;12.370;2023-04-03T08:27:52;8.70;;;0.93;;
71435;SDS011;59251;51.326;12.370;2023-04-03T08:30:17;10.52;;;1.88;;
71435;SDS011;59251;51.326;12.370;2023-04-03T08:32:43;7.07;;;1.40;;
71435;SDS011;59251;51.326;12.370;2023-04-03T08:35:09;8.02;;;1.25;;
71435;SDS011;59251;51.326;12.370;2023-04-03T08:37:35;10.43;;;1.40;;
71435;SDS011;59251;51.326;12.370;2023-04-03T08:40:03;5.20;;;1.10;;
71435;SDS011;59251;51.326;12.370;2023-04-03T08:42:34;9.00;;;1.90;;
71435;SDS011;59251;51.326;12.370;2023-04-03T08:45:10;8.38;;;1.63;;
71435;SDS011;59251;51.326;12.370;2023-04-03T08:50:55;6.77;;;0.97;;
71435;SDS011;59251;51.326;12.370;2023-04-03T08:53:28;8.45;;;1.10;;
71435;SDS011;59251;51.326;12.370;2023-04-03T08:55:57;4.40;;;0.63;;
71435;SDS011;59251;51.326;12.370;2023-04-03T08:58:30;5.97;;;0.63;;
71435;SDS011;59251;51.326;12.370;2023-04-03T09:01:17;6.55;;;0.70;;
71435;SDS011;59251;51.326;12.370;2023-04-03T09:03:46;4.83;;;0.70;;
71435;SDS011;59251;51.326;12.370;2023-04-03T09:06:22;4.40;;;0.52;;
71435;SDS011;59251;51.326;12.370;2023-04-03T09:14:39;6.47;;;0.77;;
71435;SDS011;59251;51.326;12.370;2023-04-03T09:23:08;4.97;;;0.52;;
71435;SDS011;59251;51.326;12.370;2023-04-03T09:26:02;8.13;;;0.70;;
71435;SDS011;59251;51.326;12.370;2023-04-03T09:28:32;5.53;;;0.63;;
71435;SDS011;59251;51.326;12.370;2023-04-03T09:31:01;3.65;;;0.52;;
71435;SDS011;59251;51.326;12.370;2023-04-03T09:33:44;4.82;;;0.70;;
71435;SDS011;59251;51.326;12.370;2023-04-03T09:36:10;5.82;;;0.70;;
71435;SDS011;59251;51.326;12.370;2023-04-03T09:38:36;8.33;;;1.00;;
71435;SDS011;59251;51.326;12.370;2023-04-03T09:43:34;6.30;;;0.63;;
71435;SDS011;59251;51.326;12.370;2023-04-03T09:48:59;7.35;;;1.00;;
71435;SDS011;59251;51.326;12.370;2023-04-03T09:51:29;5.97;;;0.88;;
71435;SDS011;59251;51.326;12.370;2023-04-03T09:53:56;5.90;;;1.23;;
71435;SDS011;59251;51.326;12.370;2023-04-03T09:56:26;6.47;;;0.98;;
71435;SDS011;59251;51.326;12.370;2023-04-03T10:01:35;4.35;;;0.70;;
71435;SDS011;59251;51.326;12.370;2023-04-03T10:06:32;4.53;;;0.60;;
71435;SDS011;59251;51.326;12.370;2023-04-03T10:09:04;4.88;;;0.57;;
71435;SDS011;59251;51.326;12.370;2023-04-03T10:11:45;6.05;;;0.70;;
71435;SDS011;59251;51.326;12.370;2023-04-03T10:14:22;5.30;;;0.60;;
71435;SDS011;59251;51.326;12.370;2023-04-03T10:16:50;6.53;;;0.60;;
71435;SDS011;59251;51.326;12.370;2023-04-03T10:19:34;5.80;;;1.00;;
71435;SDS011;59251;51.326;12.370;2023-04-03T10:22:12;6.30;;;1.70;;
71435;SDS011;59251;51.326;12.370;2023-04-03T10:27:44;6.75;;;0.95;;
71435;SDS011;59251;51.326;12.370;2023-04-03T10:32:51;6.43;;;0.47;;
71435;SDS011;59251;51.326;12.370;2023-04-03T10:41:04;6.60;;;0.98;;
71435;SDS011;59251;51.326;12.370;2023-04-03T10:43:58;5.68;;;0.60;;
71435;SDS011;59251;51.326;12.370;2023-04-03T10:46:47;8.10;;;0.73;;
71435;SDS011;59251;51.326;12.370;2023-04-03T10:57:58;4.00;;;0.90;;
71435;SDS011;59251;51.326;12.370;2023-04-03T11:00:44;5.38;;;0.93;;
71435;SDS011;59251;51.326;12.370;2023-04-03T11:03:14;4.90;;;0.68;;
71435;SDS011;59251;51.326;12.370;2023-04-03T11:05:50;5.90;;;0.73;;
71435;SDS011;59251;51.326;12.370;2023-04-03T11:11:06;6.05;;;0.73;;
71435;SDS011;59251;51.326;12.370;2023-04-03T11:13:44;5.90;;;0.93;;
71435;SDS011;59251;51.326;12.370;2023-04-03T11:16:16;6.20;;;1.05;;
71435;SDS011;59251;51.326;12.370;2023-04-03T11:21:39;8.98;;;0.68;;
71435;SDS011;59251;51.326;12.370;2023-04-03T11:24:16;5.35;;;0.70;;
71435;SDS011;59251;51.326;12.370;2023-04-03T11:26:47;5.60;;;0.80;;
71435;SDS011;59251;51.326;12.370;2023-04-03T11:29:18;8.05;;;1.15;;
71435;SDS011;59251;51.326;12.370;2023-04-03T11:32:09;5.47;;;0.77;;
71435;SDS011;59251;51.326;12.370;2023-04-03T11:34:47;6.22;;;0.95;;
71435;SDS011;59251;51.326;12.370;2023-04-03T11:37:17;8.18;;;0.80;;
71435;SDS011;59251;51.326;12.370;2023-04-03T11:39:57;5.82;;;0.90;;
71435;SDS011;59251;51.326;12.370;2023-04-03T11:50:42;6.63;;;0.73;;
71435;SDS011;59251;51.326;12.370;2023-04-03T11:58:16;7.23;;;0.70;;
71435;SDS011;59251;51.326;12.370;2023-04-03T12:00:56;6.97;;;1.10;;
71435;SDS011;59251;51.326;12.370;2023-04-03T12:05:50;5.40;;;1.10;;
71435;SDS011;59251;51.326;12.370;2023-04-03T12:08:28;6.03;;;0.98;;
71435;SDS011;59251;51.326;12.370;2023-04-03T12:13:33;5.17;;;0.83;;
71435;SDS011;59251;51.326;12.370;2023-04-03T12:24:28;6.10;;;1.00;;
71435;SDS011;59251;51.326;12.370;2023-04-03T12:41:23;6.55;;;1.00;;
71435;SDS011;59251;51.326;12.370;2023-04-03T12:47:22;7.33;;;1.43;;
71435;SDS011;59251;51.326;12.370;2023-04-03T12:49:49;5.25;;;0.90;;
71435;SDS011;59251;51.326;12.370;2023-04-03T12:54:50;6.85;;;0.85;;
71435;SDS011;59251;51.326;12.370;2023-04-03T12:59:41;6.17;;;0.77;;
71435;SDS011;59251;51.326;12.370;2023-04-03T13:04:57;5.45;;;1.15;;
71435;SDS011;59251;51.326;12.370;2023-04-03T13:07:31;6.82;;;0.90;;
71435;SDS011;59251;51.326;12.370;2023-04-03T13:10:14;6.30;;;1.13;;
71435;SDS011;59251;51.326;12.370;2023-04-03T13:15:14;5.07;;;0.93;;
71435;SDS011;59251;51.326;12.370;2023-04-03T13:17:43;5.70;;;0.90;;
71435;SDS011;59251;51.326;12.370;2023-04-03T13:20:09;6.38;;;0.85;;
71435;SDS011;59251;51.326;12.370;2023-04-03T13:22:43;4.78;;;1.00;;
71435;SDS011;59251;51.326;12.370;2023-04-03T13:25:13;6.63;;;1.03;;
71435;SDS011;59251;51.326;12.370;2023-04-03T13:27:39;4.43;;;0.65;;
71435;SDS011;59251;51.326;12.370;2023-04-03T13:30:17;5.13;;;0.65;;
71435;SDS011;59251;51.326;12.370;2023-04-03T13:33:20;6.80;;;1.10;;
71435;SDS011;59251;51.326;12.370;2023-04-03T13:35:54;4.90;;;0.70;;
71435;SDS011;59251;51.326;12.370;2023-04-03T13:38:23;5.73;;;0.83;;
71435;SDS011;59251;51.326;12.370;2023-04-03T13:40:53;4.40;;;0.70;;
71435;SDS011;59251;51.326;12.370;2023-04-03T13:43:21;4.80;;;0.93;;
71435;SDS011;59251;51.326;12.370;2023-04-03T13:46:32;6.93;;;0.93;;
71435;SDS011;59251;51.326;12.370;2023-04-03T13:48:39;7.07;;;0.98;;
71435;SDS011;59251;51.326;12.370;2023-04-03T13:53:48;4.60;;;0.73;;
71435;SDS011;59251;51.326;12.370;2023-04-03T13:56:18;6.63;;;0.70;;
71435;SDS011;59251;51.326;12.370;2023-04-03T13:58:56;6.13;;;0.65;;
71435;SDS011;59251;51.326;12.370;2023-04-03T14:01:22;4.68;;;0.70;;
71435;SDS011;59251;51.326;12.370;2023-04-03T14:03:56;3.93;;;0.63;;
71435;SDS011;59251;51.326;12.370;2023-04-03T14:06:23;6.22;;;0.88;;
71435;SDS011;59251;51.326;12.370;2023-04-03T14:08:48;6.25;;;0.80;;
71435;SDS011;59251;51.326;12.370;2023-04-03T14:11:16;5.40;;;1.50;;
71435;SDS011;59251;51.326;12.370;2023-04-03T14:13:47;8.38;;;1.13;;
71435;SDS011;59251;51.326;12.370;2023-04-03T14:16:14;6.68;;;0.80;;
71435;SDS011;59251;51.326;12.370;2023-04-03T14:18:43;7.43;;;0.90;;
71435;SDS011;59251;51.326;12.370;2023-04-03T14:21:13;6.60;;;0.80;;
71435;SDS011;59251;51.326;12.370;2023-04-03T14:23:40;7.90;;;1.13;;
71435;SDS011;59251;51.326;12.370;2023-04-03T14:26:22;4.93;;;0.68;;
71435;SDS011;59251;51.326;12.370;2023-04-03T14:28:50;7.70;;;1.27;;
71435;SDS011;59251;51.326;12.370;2023-04-03T14:31:18;5.80;;;1.00;;
71435;SDS011;59251;51.326;12.370;2023-04-03T14:33:44;7.80;;;1.20;;
71435;SDS011;59251;51.326;12.370;2023-04-03T14:36:13;4.83;;;0.60;;
71435;SDS011;59251;51.326;12.370;2023-04-03T14:38:45;4.38;;;0.70;;
71435;SDS011;59251;51.326;12.370;2023-04-03T14:41:15;6.32;;;0.70;;
71435;SDS011;59251;51.326;12.370;2023-04-03T14:43:42;4.97;;;0.80;;
71435;SDS011;59251;51.326;12.370;2023-04-03T14:46:12;4.70;;;0.60;;
71435;SDS011;59251;51.326;12.370;2023-04-03T14:48:42;5.57;;;0.50;;
71435;SDS011;59251;51.326;12.370;2023-04-03T14:51:10;5.00;;;0.70;;
71435;SDS011;59251;51.326;12.370;2023-04-03T14:53:36;4.97;;;0.73;;
71435;SDS011;59251;51.326;12.370;2023-04-03T14:56:02;4.50;;;0.70;;
71435;SDS011;59251;51.326;12.370;2023-04-03T14:58:35;5.47;;;0.70;;
71435;SDS011;59251;51.326;12.370;2023-04-03T15:01:02;4.47;;;0.60;;
71435;SDS011;59251;51.326;12.370;2023-04-03T15:03:27;6.30;;;1.00;;
71435;SDS011;59251;51.326;12.370;2023-04-03T15:05:53;4.57;;;0.90;;
71435;SDS011;59251;51.326;12.370;2023-04-03T15:08:22;5.20;;;0.75;;
71435;SDS011;59251;51.326;12.370;2023-04-03T15:10:50;3.83;;;0.60;;
71435;SDS011;59251;51.326;12.370;2023-04-03T15:13:17;7.82;;;0.98;;
71435;SDS011;59251;51.326;12.370;2023-04-03T15:15:44;5.38;;;0.80;;
71435;SDS011;59251;51.326;12.370;2023-04-03T15:18:22;5.53;;;0.90;;
71435;SDS011;59251;51.326;12.370;2023-04-03T15:20:51;6.10;;;0.80;;
71435;SDS011;59251;51.326;12.370;2023-04-03T15:23:17;5.75;;;0.80;;
71435;SDS011;59251;51.326;12.370;2023-04-03T15:25:43;4.95;;;0.80;;
71435;SDS011;59251;51.326;12.370;2023-04-03T15:28:44;6.20;;;0.87;;
71435;SDS011;59251;51.326;12.370;2023-04-03T15:31:04;6.05;;;1.15;;
71435;SDS011;59251;51.326;12.370;2023-04-03T15:33:31;5.43;;;0.90;;
71435;SDS011;59251;51.326;12.370;2023-04-03T15:35:59;4.30;;;0.80;;
71435;SDS011;59251;51.326;12.370;2023-04-03T15:38:25;7.27;;;1.00;;
71435;SDS011;59251;51.326;12.370;2023-04-03T15:40:50;5.30;;;0.90;;
71435;SDS011;59251;51.326;12.370;2023-04-03T15:43:16;9.80;;;1.07;;
71435;SDS011;59251;51.326;12.370;2023-04-03T15:45:42;6.40;;;1.13;;
71435;SDS011;59251;51.326;12.370;2023-04-03T15:48:08;4.70;;;0.57;;
71435;SDS011;59251;51.326;12.370;2023-04-03T15:50:34;5.78;;;1.00;;
71435;SDS011;59251;51.326;12.370;2023-04-03T15:53:00;7.73;;;0.80;;
71435;SDS011;59251;51.326;12.370;2023-04-03T15:55:27;7.32;;;1.10;;
71435;SDS011;59251;51.326;12.370;2023-04-03T15:57:55;5.03;;;0.90;;
71435;SDS011;59251;51.326;12.370;2023-04-03T16:00:20;7.10;;;1.17;;
71435;SDS011;59251;51.326;12.370;2023-04-03T16:02:47;6.20;;;0.95;;
71435;SDS011;59251;51.326;12.370;2023-04-03T16:05:16;4.45;;;0.85;;
71435;SDS011;59251;51.326;12.370;2023-04-03T16:07:42;5.93;;;1.00;;
71435;SDS011;59251;51.326;12.370;2023-04-03T16:10:09;6.43;;;1.13;;
71435;SDS011;59251;51.326;12.370;2023-04-03T16:12:35;7.18;;;0.85;;
71435;SDS011;59251;51.326;12.370;2023-04-03T16:15:01;4.82;;;0.90;;
71435;SDS011;59251;51.326;12.370;2023-04-03T16:17:27;7.90;;;1.17;;
71435;SDS011;59251;51.326;12.370;2023-04-03T16:19:56;4.95;;;0.90;;
71435;SDS011;59251;51.326;12.370;2023-04-03T16:22:21;8.33;;;1.20;;
71435;SDS011;59251;51.326;12.370;2023-04-03T16:24:49;5.05;;;0.70;;
71435;SDS011;59251;51.326;12.370;2023-04-03T16:27:15;6.70;;;0.90;;